Portada
METAR-TAF:

METAR-TAF

Aeropuertos :

Isla Norfolk, Australia

latitud: 29-02S, longitud: 167-56E, altitud: 113 m

Observación

El informe se hizo hace 27 minutos, a las 15:30 UTC
Viento calma
Temperatura 17°C
Humedad 94%
Presión 1020 hPa
Visibilidad 10 km o más

METAR: YSNF 271530Z AUTO 00000KT 9999 // NCD 17/16 Q1020 RF00.0/000.0

Hora: 01:57 (15:57 UTC)

Pronóstico

El informe se hizo hace 1 hora y 33 minutos, a las 14:24 UTC
Pronóstico válido del 27 a las 14 UTC al 28 a las 12 UTC
Viento 3 kt con dirección variable
Visibilidad 10 km o más
Escasas nubes a una altura de 1500 ft
A partir de las 27 a las 2200 UTC
Viento 8 kt del norte-noroeste
Visibilidad 10 km o más
Nubes dispersas a una altura de 2000 ft
chaparrones de lluvia

TAF: YSNF 271424Z 2714/2812 VRB03KT 9999 FEW015 FM272200 34008KT 9999 -SHRA SCT020

Observaciones y pronósticos meteorológicos de más de 4000 aeropuertos (mensajes METAR y TAF).

Los puntos amarillos y rojos representan las estaciones disponibles.

Ponga el ratón en el punto deseado para ver el nombre de la estación.

Haga clic para ver las observaciones y los pronósticos meteorológicos.

Para cambiar el mapa : haga clic en los botones verdes con una cruz de color negro para hacer un zoom, en el botón verde con un guión para alejar o en las flechas verdes para mapas adyacentes.


METAR-TAF: